sensor_id;sensor_type;location;lat;lon;timestamp;P1;durP1;ratioP1;P2;durP2;ratioP2
4049;SDS011;2039;50.894;6.888;2023-11-22T00:01:11;28.40;;;7.43;;
4049;SDS011;2039;50.894;6.888;2023-11-22T00:03:37;30.23;;;8.57;;
4049;SDS011;2039;50.894;6.888;2023-11-22T00:06:03;28.43;;;7.17;;
4049;SDS011;2039;50.894;6.888;2023-11-22T00:08:28;27.60;;;8.03;;
4049;SDS011;2039;50.894;6.888;2023-11-22T00:10:54;27.00;;;7.80;;
4049;SDS011;2039;50.894;6.888;2023-11-22T00:13:20;28.97;;;7.83;;
4049;SDS011;2039;50.894;6.888;2023-11-22T00:15:46;34.63;;;8.10;;
4049;SDS011;2039;50.894;6.888;2023-11-22T00:18:11;27.87;;;8.53;;
4049;SDS011;2039;50.894;6.888;2023-11-22T00:20:37;28.20;;;7.70;;
4049;SDS011;2039;50.894;6.888;2023-11-22T00:23:03;29.63;;;7.40;;
4049;SDS011;2039;50.894;6.888;2023-11-22T00:25:28;31.97;;;8.47;;
4049;SDS011;2039;50.894;6.888;2023-11-22T00:27:55;29.83;;;8.10;;
4049;SDS011;2039;50.894;6.888;2023-11-22T00:30:20;32.33;;;8.90;;
4049;SDS011;2039;50.894;6.888;2023-11-22T00:32:46;28.40;;;7.27;;
4049;SDS011;2039;50.894;6.888;2023-11-22T00:35:12;28.15;;;7.43;;
4049;SDS011;2039;50.894;6.888;2023-11-22T00:37:38;30.30;;;8.43;;
4049;SDS011;2039;50.894;6.888;2023-11-22T00:40:03;31.50;;;8.07;;
4049;SDS011;2039;50.894;6.888;2023-11-22T00:42:35;27.73;;;7.20;;
4049;SDS011;2039;50.894;6.888;2023-11-22T00:45:05;27.80;;;8.45;;
4049;SDS011;2039;50.894;6.888;2023-11-22T00:47:34;29.05;;;8.43;;
4049;SDS011;2039;50.894;6.888;2023-11-22T00:50:00;28.85;;;7.75;;
4049;SDS011;2039;50.894;6.888;2023-11-22T00:52:28;33.58;;;8.13;;
4049;SDS011;2039;50.894;6.888;2023-11-22T00:54:54;30.30;;;9.00;;
4049;SDS011;2039;50.894;6.888;2023-11-22T00:57:20;31.23;;;8.10;;
4049;SDS011;2039;50.894;6.888;2023-11-22T00:59:45;28.07;;;7.33;;
4049;SDS011;2039;50.894;6.888;2023-11-22T01:02:11;28.57;;;7.27;;
4049;SDS011;2039;50.894;6.888;2023-11-22T01:04:37;32.60;;;8.33;;
4049;SDS011;2039;50.894;6.888;2023-11-22T01:07:03;30.27;;;8.13;;
4049;SDS011;2039;50.894;6.888;2023-11-22T01:09:33;29.50;;;8.00;;
4049;SDS011;2039;50.894;6.888;2023-11-22T01:11:59;27.40;;;6.75;;
4049;SDS011;2039;50.894;6.888;2023-11-22T01:14:25;26.55;;;7.60;;
4049;SDS011;2039;50.894;6.888;2023-11-22T01:16:54;27.08;;;7.22;;
4049;SDS011;2039;50.894;6.888;2023-11-22T01:19:20;31.65;;;8.80;;
4049;SDS011;2039;50.894;6.888;2023-11-22T01:21:46;30.97;;;7.30;;
4049;SDS011;2039;50.894;6.888;2023-11-22T01:24:12;28.53;;;7.53;;
4049;SDS011;2039;50.894;6.888;2023-11-22T01:26:38;28.30;;;8.20;;
4049;SDS011;2039;50.894;6.888;2023-11-22T01:29:04;28.40;;;7.93;;
4049;SDS011;2039;50.894;6.888;2023-11-22T01:31:30;29.55;;;9.02;;
4049;SDS011;2039;50.894;6.888;2023-11-22T01:33:57;30.88;;;8.00;;
4049;SDS011;2039;50.894;6.888;2023-11-22T01:36:23;33.67;;;8.27;;
4049;SDS011;2039;50.894;6.888;2023-11-22T01:38:50;28.85;;;8.30;;
4049;SDS011;2039;50.894;6.888;2023-11-22T01:41:17;29.92;;;7.95;;
4049;SDS011;2039;50.894;6.888;2023-11-22T01:43:43;29.17;;;7.20;;
4049;SDS011;2039;50.894;6.888;2023-11-22T01:46:09;28.77;;;7.13;;
4049;SDS011;2039;50.894;6.888;2023-11-22T01:48:41;28.10;;;6.93;;
4049;SDS011;2039;50.894;6.888;2023-11-22T01:51:06;29.97;;;8.10;;
4049;SDS011;2039;50.894;6.888;2023-11-22T01:53:33;30.10;;;8.77;;
4049;SDS011;2039;50.894;6.888;2023-11-22T01:55:59;30.60;;;7.38;;
4049;SDS011;2039;50.894;6.888;2023-11-22T01:58:27;30.70;;;8.77;;
4049;SDS011;2039;50.894;6.888;2023-11-22T02:00:53;32.38;;;8.02;;
4049;SDS011;2039;50.894;6.888;2023-11-22T02:03:19;39.63;;;8.40;;
4049;SDS011;2039;50.894;6.888;2023-11-22T02:05:46;29.67;;;7.88;;
4049;SDS011;2039;50.894;6.888;2023-11-22T02:08:12;30.48;;;9.10;;
4049;SDS011;2039;50.894;6.888;2023-11-22T02:10:38;31.13;;;7.95;;
4049;SDS011;2039;50.894;6.888;2023-11-22T02:13:05;32.30;;;8.07;;
4049;SDS011;2039;50.894;6.888;2023-11-22T02:15:33;29.48;;;7.68;;
4049;SDS011;2039;50.894;6.888;2023-11-22T02:17:59;27.58;;;6.85;;
4049;SDS011;2039;50.894;6.888;2023-11-22T02:20:26;28.33;;;8.00;;
4049;SDS011;2039;50.894;6.888;2023-11-22T02:22:51;25.93;;;6.90;;
4049;SDS011;2039;50.894;6.888;2023-11-22T02:25:19;30.42;;;8.88;;
4049;SDS011;2039;50.894;6.888;2023-11-22T02:27:45;29.87;;;9.30;;
4049;SDS011;2039;50.894;6.888;2023-11-22T02:30:11;29.37;;;8.00;;
4049;SDS011;2039;50.894;6.888;2023-11-22T02:32:37;27.57;;;6.60;;
4049;SDS011;2039;50.894;6.888;2023-11-22T02:35:04;29.90;;;7.90;;
4049;SDS011;2039;50.894;6.888;2023-11-22T02:37:32;27.90;;;7.75;;
4049;SDS011;2039;50.894;6.888;2023-11-22T02:42:45;28.58;;;8.30;;
4049;SDS011;2039;50.894;6.888;2023-11-22T02:45:13;29.60;;;8.65;;
4049;SDS011;2039;50.894;6.888;2023-11-22T02:47:41;28.40;;;8.10;;
4049;SDS011;2039;50.894;6.888;2023-11-22T02:50:11;29.23;;;7.72;;
4049;SDS011;2039;50.894;6.888;2023-11-22T02:52:37;30.25;;;7.95;;
4049;SDS011;2039;50.894;6.888;2023-11-22T02:55:03;30.13;;;7.83;;
4049;SDS011;2039;50.894;6.888;2023-11-22T02:57:32;30.67;;;7.95;;
4049;SDS011;2039;50.894;6.888;2023-11-22T02:59:58;31.03;;;8.43;;
4049;SDS011;2039;50.894;6.888;2023-11-22T03:02:23;28.93;;;7.70;;
4049;SDS011;2039;50.894;6.888;2023-11-22T03:04:49;27.90;;;7.97;;
4049;SDS011;2039;50.894;6.888;2023-11-22T03:07:15;29.65;;;7.75;;
4049;SDS011;2039;50.894;6.888;2023-11-22T03:09:41;25.90;;;6.22;;
4049;SDS011;2039;50.894;6.888;2023-11-22T03:12:09;27.05;;;7.97;;
4049;SDS011;2039;50.894;6.888;2023-11-22T03:14:35;29.63;;;7.63;;
4049;SDS011;2039;50.894;6.888;2023-11-22T03:17:01;27.48;;;7.28;;
4049;SDS011;2039;50.894;6.888;2023-11-22T03:19:26;27.77;;;7.63;;
4049;SDS011;2039;50.894;6.888;2023-11-22T03:21:53;30.08;;;7.90;;
4049;SDS011;2039;50.894;6.888;2023-11-22T03:24:21;28.60;;;7.43;;
4049;SDS011;2039;50.894;6.888;2023-11-22T03:26:47;31.90;;;8.30;;
4049;SDS011;2039;50.894;6.888;2023-11-22T03:29:14;28.00;;;6.97;;
4049;SDS011;2039;50.894;6.888;2023-11-22T03:31:41;30.38;;;8.57;;
4049;SDS011;2039;50.894;6.888;2023-11-22T03:34:07;27.80;;;8.07;;
4049;SDS011;2039;50.894;6.888;2023-11-22T03:36:33;28.30;;;7.77;;
4049;SDS011;2039;50.894;6.888;2023-11-22T03:38:58;28.17;;;7.13;;
4049;SDS011;2039;50.894;6.888;2023-11-22T03:41:24;28.90;;;7.37;;
4049;SDS011;2039;50.894;6.888;2023-11-22T03:43:50;29.33;;;8.07;;
4049;SDS011;2039;50.894;6.888;2023-11-22T03:46:15;29.00;;;7.37;;
4049;SDS011;2039;50.894;6.888;2023-11-22T03:48:41;32.17;;;8.10;;
4049;SDS011;2039;50.894;6.888;2023-11-22T03:51:07;28.08;;;7.55;;
4049;SDS011;2039;50.894;6.888;2023-11-22T03:53:33;30.50;;;8.17;;
4049;SDS011;2039;50.894;6.888;2023-11-22T03:56:01;30.17;;;8.00;;
4049;SDS011;2039;50.894;6.888;2023-11-22T03:58:27;29.90;;;7.63;;
4049;SDS011;2039;50.894;6.888;2023-11-22T04:00:53;28.67;;;8.10;;
4049;SDS011;2039;50.894;6.888;2023-11-22T04:03:18;27.73;;;7.07;;
4049;SDS011;2039;50.894;6.888;2023-11-22T04:05:44;26.40;;;7.20;;
4049;SDS011;2039;50.894;6.888;2023-11-22T04:08:10;26.10;;;7.33;;
4049;SDS011;2039;50.894;6.888;2023-11-22T04:10:38;28.90;;;8.13;;
4049;SDS011;2039;50.894;6.888;2023-11-22T04:13:04;26.63;;;7.30;;
4049;SDS011;2039;50.894;6.888;2023-11-22T04:15:30;27.37;;;8.20;;
4049;SDS011;2039;50.894;6.888;2023-11-22T04:17:55;28.30;;;7.13;;
4049;SDS011;2039;50.894;6.888;2023-11-22T04:20:21;28.80;;;7.93;;
4049;SDS011;2039;50.894;6.888;2023-11-22T04:22:47;27.67;;;7.15;;
4049;SDS011;2039;50.894;6.888;2023-11-22T04:25:13;29.50;;;8.60;;
4049;SDS011;2039;50.894;6.888;2023-11-22T04:27:39;28.23;;;7.60;;
4049;SDS011;2039;50.894;6.888;2023-11-22T04:30:06;26.52;;;7.95;;
4049;SDS011;2039;50.894;6.888;2023-11-22T04:32:59;30.27;;;7.95;;
4049;SDS011;2039;50.894;6.888;2023-11-22T04:35:28;27.83;;;7.20;;
4049;SDS011;2039;50.894;6.888;2023-11-22T04:37:53;26.95;;;7.82;;
4049;SDS011;2039;50.894;6.888;2023-11-22T04:40:26;31.42;;;9.77;;
4049;SDS011;2039;50.894;6.888;2023-11-22T04:42:52;29.10;;;8.80;;
4049;SDS011;2039;50.894;6.888;2023-11-22T04:45:18;29.50;;;8.80;;
4049;SDS011;2039;50.894;6.888;2023-11-22T04:47:43;28.63;;;8.50;;
4049;SDS011;2039;50.894;6.888;2023-11-22T04:50:09;29.27;;;9.30;;
4049;SDS011;2039;50.894;6.888;2023-11-22T04:52:35;29.35;;;8.25;;
4049;SDS011;2039;50.894;6.888;2023-11-22T04:55:04;37.63;;;9.63;;
4049;SDS011;2039;50.894;6.888;2023-11-22T04:57:30;29.73;;;8.23;;
4049;SDS011;2039;50.894;6.888;2023-11-22T04:59:56;32.53;;;10.47;;
4049;SDS011;2039;50.894;6.888;2023-11-22T05:02:22;29.40;;;9.50;;
4049;SDS011;2039;50.894;6.888;2023-11-22T05:04:51;27.48;;;7.60;;
4049;SDS011;2039;50.894;6.888;2023-11-22T05:07:18;28.65;;;8.38;;
4049;SDS011;2039;50.894;6.888;2023-11-22T05:09:46;30.52;;;9.27;;
4049;SDS011;2039;50.894;6.888;2023-11-22T05:12:12;30.50;;;9.67;;
4049;SDS011;2039;50.894;6.888;2023-11-22T05:14:42;31.35;;;8.95;;
4049;SDS011;2039;50.894;6.888;2023-11-22T05:17:10;27.25;;;8.27;;
4049;SDS011;2039;50.894;6.888;2023-11-22T05:19:37;28.20;;;8.70;;
4049;SDS011;2039;50.894;6.888;2023-11-22T05:22:03;28.38;;;8.80;;
4049;SDS011;2039;50.894;6.888;2023-11-22T05:24:29;27.70;;;8.02;;
4049;SDS011;2039;50.894;6.888;2023-11-22T05:26:55;26.37;;;8.33;;
4049;SDS011;2039;50.894;6.888;2023-11-22T05:29:21;31.80;;;7.43;;
4049;SDS011;2039;50.894;6.888;2023-11-22T05:31:47;29.30;;;9.20;;
4049;SDS011;2039;50.894;6.888;2023-11-22T05:34:13;38.67;;;8.88;;
4049;SDS011;2039;50.894;6.888;2023-11-22T05:36:39;27.33;;;8.00;;
4049;SDS011;2039;50.894;6.888;2023-11-22T05:39:05;27.85;;;8.73;;
4049;SDS011;2039;50.894;6.888;2023-11-22T05:41:31;30.33;;;9.60;;
4049;SDS011;2039;50.894;6.888;2023-11-22T05:43:57;26.50;;;8.53;;
4049;SDS011;2039;50.894;6.888;2023-11-22T05:46:25;27.67;;;7.55;;
4049;SDS011;2039;50.894;6.888;2023-11-22T05:48:56;32.35;;;9.77;;
4049;SDS011;2039;50.894;6.888;2023-11-22T05:51:21;29.77;;;8.77;;
4049;SDS011;2039;50.894;6.888;2023-11-22T05:53:50;33.17;;;8.77;;
4049;SDS011;2039;50.894;6.888;2023-11-22T05:56:16;28.57;;;8.17;;
4049;SDS011;2039;50.894;6.888;2023-11-22T05:58:44;35.10;;;8.93;;
4049;SDS011;2039;50.894;6.888;2023-11-22T06:01:13;30.35;;;9.32;;
4049;SDS011;2039;50.894;6.888;2023-11-22T06:03:39;30.00;;;8.37;;
4049;SDS011;2039;50.894;6.888;2023-11-22T06:06:08;29.05;;;8.88;;
4049;SDS011;2039;50.894;6.888;2023-11-22T06:08:34;28.03;;;8.13;;
4049;SDS011;2039;50.894;6.888;2023-11-22T06:11:00;29.38;;;9.60;;
4049;SDS011;2039;50.894;6.888;2023-11-22T06:13:28;28.58;;;8.65;;
4049;SDS011;2039;50.894;6.888;2023-11-22T06:15:54;27.83;;;8.10;;
4049;SDS011;2039;50.894;6.888;2023-11-22T06:18:20;27.07;;;8.63;;
4049;SDS011;2039;50.894;6.888;2023-11-22T06:20:45;30.67;;;9.33;;
4049;SDS011;2039;50.894;6.888;2023-11-22T06:23:14;27.00;;;7.95;;
4049;SDS011;2039;50.894;6.888;2023-11-22T06:25:40;31.37;;;9.50;;
4049;SDS011;2039;50.894;6.888;2023-11-22T06:28:07;33.17;;;9.23;;
4049;SDS011;2039;50.894;6.888;2023-11-22T06:30:36;26.85;;;8.23;;
4049;SDS011;2039;50.894;6.888;2023-11-22T06:33:02;38.72;;;10.30;;
4049;SDS011;2039;50.894;6.888;2023-11-22T06:35:28;29.70;;;8.90;;
4049;SDS011;2039;50.894;6.888;2023-11-22T06:37:56;27.70;;;8.57;;
4049;SDS011;2039;50.894;6.888;2023-11-22T06:40:21;31.02;;;9.48;;
4049;SDS011;2039;50.894;6.888;2023-11-22T06:42:48;28.50;;;9.10;;
4049;SDS011;2039;50.894;6.888;2023-11-22T06:45:13;29.33;;;8.40;;
4049;SDS011;2039;50.894;6.888;2023-11-22T06:47:39;28.25;;;8.98;;
4049;SDS011;2039;50.894;6.888;2023-11-22T06:50:06;28.50;;;9.13;;
4049;SDS011;2039;50.894;6.888;2023-11-22T06:52:35;30.60;;;9.57;;
4049;SDS011;2039;50.894;6.888;2023-11-22T06:55:07;32.13;;;10.45;;
4049;SDS011;2039;50.894;6.888;2023-11-22T06:57:36;34.92;;;9.43;;
4049;SDS011;2039;50.894;6.888;2023-11-22T07:00:03;29.40;;;8.85;;
4049;SDS011;2039;50.894;6.888;2023-11-22T07:02:38;36.40;;;9.13;;
4049;SDS011;2039;50.894;6.888;2023-11-22T07:05:10;30.75;;;9.73;;
4049;SDS011;2039;50.894;6.888;2023-11-22T07:07:36;28.87;;;9.20;;
4049;SDS011;2039;50.894;6.888;2023-11-22T07:10:03;30.70;;;9.73;;
4049;SDS011;2039;50.894;6.888;2023-11-22T07:12:32;29.25;;;9.55;;
4049;SDS011;2039;50.894;6.888;2023-11-22T07:15:02;28.25;;;8.57;;
4049;SDS011;2039;50.894;6.888;2023-11-22T07:17:28;28.83;;;9.07;;
4049;SDS011;2039;50.894;6.888;2023-11-22T07:19:54;28.40;;;9.30;;
4049;SDS011;2039;50.894;6.888;2023-11-22T07:22:23;29.35;;;8.90;;
4049;SDS011;2039;50.894;6.888;2023-11-22T07:24:52;27.98;;;9.38;;
4049;SDS011;2039;50.894;6.888;2023-11-22T07:27:19;26.88;;;8.38;;
4049;SDS011;2039;50.894;6.888;2023-11-22T07:29:48;30.20;;;8.80;;
4049;SDS011;2039;50.894;6.888;2023-11-22T07:32:17;29.40;;;8.55;;
4049;SDS011;2039;50.894;6.888;2023-11-22T07:34:45;34.72;;;9.63;;
4049;SDS011;2039;50.894;6.888;2023-11-22T07:37:11;30.43;;;10.07;;
4049;SDS011;2039;50.894;6.888;2023-11-22T07:39:38;30.02;;;9.73;;
4049;SDS011;2039;50.894;6.888;2023-11-22T07:42:05;30.35;;;8.48;;
4049;SDS011;2039;50.894;6.888;2023-11-22T07:44:34;31.13;;;9.30;;
4049;SDS011;2039;50.894;6.888;2023-11-22T07:47:02;30.75;;;8.70;;
4049;SDS011;2039;50.894;6.888;2023-11-22T07:52:40;31.63;;;8.40;;
4049;SDS011;2039;50.894;6.888;2023-11-22T07:55:07;33.10;;;9.15;;
4049;SDS011;2039;50.894;6.888;2023-11-22T07:57:33;27.63;;;8.35;;
4049;SDS011;2039;50.894;6.888;2023-11-22T07:59:59;27.08;;;8.70;;
4049;SDS011;2039;50.894;6.888;2023-11-22T08:02:26;29.20;;;8.98;;
4049;SDS011;2039;50.894;6.888;2023-11-22T08:04:53;29.00;;;9.13;;
4049;SDS011;2039;50.894;6.888;2023-11-22T08:07:20;28.13;;;8.63;;
4049;SDS011;2039;50.894;6.888;2023-11-22T08:09:47;29.00;;;9.10;;
4049;SDS011;2039;50.894;6.888;2023-11-22T08:12:13;30.37;;;9.17;;
4049;SDS011;2039;50.894;6.888;2023-11-22T08:14:39;31.50;;;9.53;;
4049;SDS011;2039;50.894;6.888;2023-11-22T08:17:05;30.67;;;9.60;;
4049;SDS011;2039;50.894;6.888;2023-11-22T08:19:31;29.48;;;9.32;;
4049;SDS011;2039;50.894;6.888;2023-11-22T08:21:57;30.83;;;8.43;;
4049;SDS011;2039;50.894;6.888;2023-11-22T08:24:23;32.13;;;8.60;;
4049;SDS011;2039;50.894;6.888;2023-11-22T08:26:48;31.87;;;9.40;;
4049;SDS011;2039;50.894;6.888;2023-11-22T08:29:14;30.57;;;8.60;;
4049;SDS011;2039;50.894;6.888;2023-11-22T08:31:41;32.90;;;9.95;;
4049;SDS011;2039;50.894;6.888;2023-11-22T08:34:06;33.57;;;9.83;;
4049;SDS011;2039;50.894;6.888;2023-11-22T08:36:33;33.77;;;9.47;;
4049;SDS011;2039;50.894;6.888;2023-11-22T08:39:02;31.33;;;10.63;;
4049;SDS011;2039;50.894;6.888;2023-11-22T08:41:29;31.42;;;10.10;;
4049;SDS011;2039;50.894;6.888;2023-11-22T08:44:01;31.23;;;9.00;;
4049;SDS011;2039;50.894;6.888;2023-11-22T08:46:27;30.20;;;9.02;;
4049;SDS011;2039;50.894;6.888;2023-11-22T08:48:52;31.75;;;9.73;;
4049;SDS011;2039;50.894;6.888;2023-11-22T08:51:18;33.17;;;10.07;;
4049;SDS011;2039;50.894;6.888;2023-11-22T08:53:44;31.00;;;10.40;;
4049;SDS011;2039;50.894;6.888;2023-11-22T08:56:12;30.80;;;8.95;;
4049;SDS011;2039;50.894;6.888;2023-11-22T08:58:38;31.13;;;8.73;;
4049;SDS011;2039;50.894;6.888;2023-11-22T09:01:04;32.28;;;8.80;;
4049;SDS011;2039;50.894;6.888;2023-11-22T09:03:33;33.00;;;9.57;;
4049;SDS011;2039;50.894;6.888;2023-11-22T09:05:59;34.15;;;10.10;;
4049;SDS011;2039;50.894;6.888;2023-11-22T09:08:25;33.10;;;9.50;;
4049;SDS011;2039;50.894;6.888;2023-11-22T09:10:51;31.80;;;9.05;;
4049;SDS011;2039;50.894;6.888;2023-11-22T09:13:20;30.73;;;9.05;;
4049;SDS011;2039;50.894;6.888;2023-11-22T09:15:49;36.40;;;9.35;;
4049;SDS011;2039;50.894;6.888;2023-11-22T09:18:15;28.25;;;8.10;;
4049;SDS011;2039;50.894;6.888;2023-11-22T09:20:41;31.63;;;8.80;;
4049;SDS011;2039;50.894;6.888;2023-11-22T09:23:10;32.97;;;9.48;;
4049;SDS011;2039;50.894;6.888;2023-11-22T09:25:37;31.90;;;8.98;;
4049;SDS011;2039;50.894;6.888;2023-11-22T09:28:03;31.67;;;7.72;;
4049;SDS011;2039;50.894;6.888;2023-11-22T09:30:29;29.00;;;7.67;;
4049;SDS011;2039;50.894;6.888;2023-11-22T09:33:08;29.40;;;8.75;;
4049;SDS011;2039;50.894;6.888;2023-11-22T09:35:40;26.65;;;7.80;;
4049;SDS011;2039;50.894;6.888;2023-11-22T09:38:08;28.58;;;7.75;;
4049;SDS011;2039;50.894;6.888;2023-11-22T09:40:39;28.20;;;7.50;;
4049;SDS011;2039;50.894;6.888;2023-11-22T09:43:06;28.10;;;7.70;;
4049;SDS011;2039;50.894;6.888;2023-11-22T09:45:32;24.60;;;6.40;;
4049;SDS011;2039;50.894;6.888;2023-11-22T09:47:59;27.65;;;7.30;;
4049;SDS011;2039;50.894;6.888;2023-11-22T09:50:42;27.95;;;6.50;;
4049;SDS011;2039;50.894;6.888;2023-11-22T09:53:19;24.25;;;6.10;;
4049;SDS011;2039;50.894;6.888;2023-11-22T09:55:57;24.55;;;6.47;;
4049;SDS011;2039;50.894;6.888;2023-11-22T09:58:23;25.17;;;5.75;;
4049;SDS011;2039;50.894;6.888;2023-11-22T10:00:50;28.27;;;7.25;;
4049;SDS011;2039;50.894;6.888;2023-11-22T10:03:17;22.60;;;5.50;;
4049;SDS011;2039;50.894;6.888;2023-11-22T10:05:45;25.35;;;6.47;;
4049;SDS011;2039;50.894;6.888;2023-11-22T10:08:13;28.10;;;7.03;;
4049;SDS011;2039;50.894;6.888;2023-11-22T10:10:42;22.42;;;6.00;;
4049;SDS011;2039;50.894;6.888;2023-11-22T10:13:10;20.95;;;5.03;;
4049;SDS011;2039;50.894;6.888;2023-11-22T10:15:37;23.42;;;5.20;;
4049;SDS011;2039;50.894;6.888;2023-11-22T10:18:03;25.23;;;5.87;;
4049;SDS011;2039;50.894;6.888;2023-11-22T10:23:01;21.42;;;5.30;;
4049;SDS011;2039;50.894;6.888;2023-11-22T10:25:28;22.23;;;5.22;;
4049;SDS011;2039;50.894;6.888;2023-11-22T10:27:57;21.52;;;5.25;;
4049;SDS011;2039;50.894;6.888;2023-11-22T10:30:23;22.50;;;5.55;;
4049;SDS011;2039;50.894;6.888;2023-11-22T10:32:49;23.30;;;5.90;;
4049;SDS011;2039;50.894;6.888;2023-11-22T10:35:17;23.20;;;5.32;;
4049;SDS011;2039;50.894;6.888;2023-11-22T10:37:47;20.98;;;4.47;;
4049;SDS011;2039;50.894;6.888;2023-11-22T10:40:13;20.98;;;4.72;;
4049;SDS011;2039;50.894;6.888;2023-11-22T10:42:43;23.27;;;5.35;;
4049;SDS011;2039;50.894;6.888;2023-11-22T10:45:14;21.13;;;5.07;;
4049;SDS011;2039;50.894;6.888;2023-11-22T10:47:45;22.13;;;4.90;;
4049;SDS011;2039;50.894;6.888;2023-11-22T10:50:11;21.08;;;4.30;;
4049;SDS011;2039;50.894;6.888;2023-11-22T10:52:40;21.83;;;4.95;;
4049;SDS011;2039;50.894;6.888;2023-11-22T10:55:11;24.90;;;5.03;;
4049;SDS011;2039;50.894;6.888;2023-11-22T10:57:44;18.30;;;3.95;;
4049;SDS011;2039;50.894;6.888;2023-11-22T11:00:16;19.13;;;3.72;;
4049;SDS011;2039;50.894;6.888;2023-11-22T11:02:47;22.92;;;4.72;;
4049;SDS011;2039;50.894;6.888;2023-11-22T11:05:22;22.58;;;4.78;;
4049;SDS011;2039;50.894;6.888;2023-11-22T11:08:07;19.85;;;4.13;;
4049;SDS011;2039;50.894;6.888;2023-11-22T11:10:45;20.75;;;4.50;;
4049;SDS011;2039;50.894;6.888;2023-11-22T11:13:11;19.17;;;3.45;;
4049;SDS011;2039;50.894;6.888;2023-11-22T11:15:42;19.92;;;3.97;;
4049;SDS011;2039;50.894;6.888;2023-11-22T11:18:09;20.08;;;4.55;;
4049;SDS011;2039;50.894;6.888;2023-11-22T11:23:24;19.20;;;3.55;;
4049;SDS011;2039;50.894;6.888;2023-11-22T11:25:58;22.23;;;3.80;;
4049;SDS011;2039;50.894;6.888;2023-11-22T11:28:43;18.02;;;3.58;;
4049;SDS011;2039;50.894;6.888;2023-11-22T11:31:10;19.63;;;3.63;;
4049;SDS011;2039;50.894;6.888;2023-11-22T11:33:52;18.60;;;4.07;;
4049;SDS011;2039;50.894;6.888;2023-11-22T11:36:27;17.98;;;3.33;;
4049;SDS011;2039;50.894;6.888;2023-11-22T11:39:00;20.58;;;3.20;;
4049;SDS011;2039;50.894;6.888;2023-11-22T11:41:29;20.60;;;3.75;;
4049;SDS011;2039;50.894;6.888;2023-11-22T11:44:03;19.33;;;3.45;;
4049;SDS011;2039;50.894;6.888;2023-11-22T11:46:38;20.80;;;3.58;;
4049;SDS011;2039;50.894;6.888;2023-11-22T11:49:08;19.85;;;3.67;;
4049;SDS011;2039;50.894;6.888;2023-11-22T11:51:39;18.95;;;3.95;;
4049;SDS011;2039;50.894;6.888;2023-11-22T11:54:05;17.30;;;3.10;;
4049;SDS011;2039;50.894;6.888;2023-11-22T11:56:36;23.75;;;3.90;;
4049;SDS011;2039;50.894;6.888;2023-11-22T11:59:02;19.00;;;3.10;;
4049;SDS011;2039;50.894;6.888;2023-11-22T12:01:28;19.30;;;3.75;;
4049;SDS011;2039;50.894;6.888;2023-11-22T12:04:00;18.00;;;3.10;;
4049;SDS011;2039;50.894;6.888;2023-11-22T12:06:30;18.02;;;3.55;;
4049;SDS011;2039;50.894;6.888;2023-11-22T12:08:59;17.77;;;3.75;;
4049;SDS011;2039;50.894;6.888;2023-11-22T12:11:32;17.75;;;3.60;;
4049;SDS011;2039;50.894;6.888;2023-11-22T12:13:57;18.20;;;3.55;;
4049;SDS011;2039;50.894;6.888;2023-11-22T12:16:23;20.73;;;3.90;;
4049;SDS011;2039;50.894;6.888;2023-11-22T12:18:52;18.67;;;3.70;;
4049;SDS011;2039;50.894;6.888;2023-11-22T12:21:18;17.00;;;3.15;;
4049;SDS011;2039;50.894;6.888;2023-11-22T12:23:47;18.08;;;3.20;;
4049;SDS011;2039;50.894;6.888;2023-11-22T12:26:19;19.45;;;3.40;;
4049;SDS011;2039;50.894;6.888;2023-11-22T12:28:48;19.65;;;3.28;;
4049;SDS011;2039;50.894;6.888;2023-11-22T12:31:15;18.02;;;2.88;;
4049;SDS011;2039;50.894;6.888;2023-11-22T12:33:44;18.17;;;3.85;;
4049;SDS011;2039;50.894;6.888;2023-11-22T12:36:16;17.17;;;2.90;;
4049;SDS011;2039;50.894;6.888;2023-11-22T12:38:43;22.48;;;3.22;;
4049;SDS011;2039;50.894;6.888;2023-11-22T12:41:09;18.83;;;3.37;;
4049;SDS011;2039;50.894;6.888;2023-11-22T12:43:38;18.63;;;3.10;;
4049;SDS011;2039;50.894;6.888;2023-11-22T12:46:09;19.75;;;4.10;;
4049;SDS011;2039;50.894;6.888;2023-11-22T12:48:38;20.27;;;3.88;;
4049;SDS011;2039;50.894;6.888;2023-11-22T12:51:14;17.75;;;3.05;;
4049;SDS011;2039;50.894;6.888;2023-11-22T12:53:41;19.25;;;3.55;;
4049;SDS011;2039;50.894;6.888;2023-11-22T12:56:07;18.00;;;4.03;;
4049;SDS011;2039;50.894;6.888;2023-11-22T12:58:33;20.13;;;4.18;;
4049;SDS011;2039;50.894;6.888;2023-11-22T13:00:59;19.77;;;4.17;;
4049;SDS011;2039;50.894;6.888;2023-11-22T13:03:25;19.70;;;4.80;;
4049;SDS011;2039;50.894;6.888;2023-11-22T13:05:52;21.15;;;3.90;;
4049;SDS011;2039;50.894;6.888;2023-11-22T13:08:18;17.88;;;3.05;;
4049;SDS011;2039;50.894;6.888;2023-11-22T13:10:47;18.95;;;3.00;;
4049;SDS011;2039;50.894;6.888;2023-11-22T13:13:22;20.63;;;3.60;;
4049;SDS011;2039;50.894;6.888;2023-11-22T13:15:48;18.92;;;4.00;;
4049;SDS011;2039;50.894;6.888;2023-11-22T13:18:14;18.08;;;3.65;;
4049;SDS011;2039;50.894;6.888;2023-11-22T13:20:47;18.67;;;4.30;;
4049;SDS011;2039;50.894;6.888;2023-11-22T13:23:16;19.73;;;4.05;;
4049;SDS011;2039;50.894;6.888;2023-11-22T13:25:51;17.95;;;3.30;;
4049;SDS011;2039;50.894;6.888;2023-11-22T13:28:17;18.05;;;3.10;;
4049;SDS011;2039;50.894;6.888;2023-11-22T13:30:43;17.17;;;3.37;;
4049;SDS011;2039;50.894;6.888;2023-11-22T13:33:11;18.80;;;3.40;;
4049;SDS011;2039;50.894;6.888;2023-11-22T13:35:38;18.40;;;3.20;;
4049;SDS011;2039;50.894;6.888;2023-11-22T13:38:04;17.17;;;3.35;;
4049;SDS011;2039;50.894;6.888;2023-11-22T13:40:36;17.95;;;2.78;;
4049;SDS011;2039;50.894;6.888;2023-11-22T13:43:04;16.15;;;2.70;;
4049;SDS011;2039;50.894;6.888;2023-11-22T13:45:31;18.50;;;3.50;;
4049;SDS011;2039;50.894;6.888;2023-11-22T13:48:01;17.98;;;3.15;;
4049;SDS011;2039;50.894;6.888;2023-11-22T13:50:34;18.80;;;3.70;;
4049;SDS011;2039;50.894;6.888;2023-11-22T13:53:01;18.75;;;3.45;;
4049;SDS011;2039;50.894;6.888;2023-11-22T13:55:28;17.40;;;3.30;;
4049;SDS011;2039;50.894;6.888;2023-11-22T13:57:56;20.23;;;4.85;;
4049;SDS011;2039;50.894;6.888;2023-11-22T14:00:28;18.98;;;3.42;;
4049;SDS011;2039;50.894;6.888;2023-11-22T14:03:00;22.10;;;5.25;;
4049;SDS011;2039;50.894;6.888;2023-11-22T14:05:31;18.17;;;3.95;;
4049;SDS011;2039;50.894;6.888;2023-11-22T14:07:58;20.35;;;4.60;;
4049;SDS011;2039;50.894;6.888;2023-11-22T14:10:25;19.60;;;4.28;;
4049;SDS011;2039;50.894;6.888;2023-11-22T14:12:51;19.70;;;4.45;;
4049;SDS011;2039;50.894;6.888;2023-11-22T14:15:17;23.50;;;5.60;;
4049;SDS011;2039;50.894;6.888;2023-11-22T14:17:46;23.05;;;5.05;;
4049;SDS011;2039;50.894;6.888;2023-11-22T14:20:16;19.83;;;3.90;;
4049;SDS011;2039;50.894;6.888;2023-11-22T14:22:41;19.47;;;4.00;;
4049;SDS011;2039;50.894;6.888;2023-11-22T14:25:08;24.23;;;5.28;;
4049;SDS011;2039;50.894;6.888;2023-11-22T14:27:40;22.23;;;4.70;;
4049;SDS011;2039;50.894;6.888;2023-11-22T14:30:12;22.80;;;4.90;;
4049;SDS011;2039;50.894;6.888;2023-11-22T14:32:41;23.92;;;5.30;;
4049;SDS011;2039;50.894;6.888;2023-11-22T14:35:08;20.77;;;4.85;;
4049;SDS011;2039;50.894;6.888;2023-11-22T14:37:34;22.50;;;4.72;;
4049;SDS011;2039;50.894;6.888;2023-11-22T14:40:01;21.88;;;4.75;;
4049;SDS011;2039;50.894;6.888;2023-11-22T14:42:30;20.60;;;5.05;;
4049;SDS011;2039;50.894;6.888;2023-11-22T14:44:56;21.63;;;4.72;;
4049;SDS011;2039;50.894;6.888;2023-11-22T14:47:22;20.15;;;4.82;;
4049;SDS011;2039;50.894;6.888;2023-11-22T14:49:50;21.88;;;5.65;;
4049;SDS011;2039;50.894;6.888;2023-11-22T14:52:21;22.80;;;5.20;;
4049;SDS011;2039;50.894;6.888;2023-11-22T14:54:48;23.58;;;5.25;;
4049;SDS011;2039;50.894;6.888;2023-11-22T14:57:15;21.38;;;5.22;;
4049;SDS011;2039;50.894;6.888;2023-11-22T14:59:42;22.73;;;5.32;;
4049;SDS011;2039;50.894;6.888;2023-11-22T15:02:09;22.35;;;5.05;;
4049;SDS011;2039;50.894;6.888;2023-11-22T15:04:39;20.80;;;5.28;;
4049;SDS011;2039;50.894;6.888;2023-11-22T15:07:04;22.77;;;4.95;;
4049;SDS011;2039;50.894;6.888;2023-11-22T15:09:33;24.70;;;5.40;;
4049;SDS011;2039;50.894;6.888;2023-11-22T15:11:59;21.80;;;6.23;;
4049;SDS011;2039;50.894;6.888;2023-11-22T15:14:28;21.42;;;5.38;;